La Crosse, Indiana
Current Conditions -  °F | °C
As of 2:56 AM on Monday 20 Oct 2014 (Local Time) from KVPZ Reporting Station
Overcast Overcast  
Wind Chill: 44°   Ceiling: 7000
Heat Index: 48°   Visibility: 10mi
Dew Point: 43°   Wind: 9mph
Humidity: 83%   Direction: 200°SSW
Pressure: 29.89"   Gusts: NA
Location:  41.32°N, 86.89°W
Report Text: KVPZ 200756Z AUTO 20008KT 10SM BKN070 OVC080 09/06 A2989 RMK AO2 SLP124 T00890061 TSNO
Loading
Personal Weather Stations






























Interactive Weather Map
Tropical Storm Tracking
New forecast layout! Learn more

10-Day Weather Forecast

Advertisements
Track Severe Weather on mobile